Time;durP1;ratioP1;P1;durP2;ratioP2;P2;SDS_P1;SDS_P2;PMS_P1;PMS_P2;Temp;Humidity;BMP_temperature;BMP_pressure;BME280_temperature;BME280_humidity;BME280_pressure;Samples;Min_cycle;Max_cycle;Signal;HPM_P1;HPM_P2
2023/01/31 00:01:32;;;;;;;;;;;;;;;4.81;74.39;99421.59;5054873;28;4439;-78
2023/01/31 00:03:58;;;;;;;;;;;;;;;4.76;74.71;99420.38;5054807;28;4133;-78
2023/01/31 00:06:25;;;;;;;;;;;;;;;4.78;74.65;99420.97;5054481;28;5829;-78
2023/01/31 00:08:52;;;;;;;;;;;;;;;4.81;74.57;99425.06;5056435;28;4580;-79
2023/01/31 00:11:18;;;;;;;;;;;;;;;4.85;74.47;99425.47;5054123;28;4637;-78
2023/01/31 00:13:44;;;;;;;;;;;;;;;4.81;74.49;99417.06;5055717;28;4691;-78
2023/01/31 00:16:11;;;;;;;;;;;;;;;4.90;74.15;99413.16;5055243;28;4236;-78
2023/01/31 00:18:38;;;;;;;;;;;;;;;4.85;74.33;99420.94;5053772;28;4046;-78
2023/01/31 00:21:06;;;;;;;;;;;;;;;4.81;74.37;99418.94;5053016;28;4403;-78
2023/01/31 00:23:32;;;;;;;;;;;;;;;4.81;74.53;99429.59;5054443;28;4621;-78
2023/01/31 00:25:58;;;;;;;;;;;;;;;4.82;74.55;99417.88;5052171;28;3929;-78
2023/01/31 00:28:25;;;;;;;;;;;;;;;4.84;74.46;99410.50;5052935;28;4772;-78
2023/01/31 00:30:51;;;;;;;;;;;;;;;4.85;74.51;99420.94;5056019;28;4725;-78
2023/01/31 00:33:17;;;;;;;;;;;;;;;4.85;74.37;99420.13;5054369;28;4157;-79
2023/01/31 00:35:45;;;;;;;;;;;;;;;4.85;74.49;99426.28;5053980;28;4845;-78
2023/01/31 00:38:12;;;;;;;;;;;;;;;4.86;74.31;99424.47;5053838;28;4695;-78
2023/01/31 00:40:38;;;;;;;;;;;;;;;4.86;74.29;99430.63;5069749;28;4886;-78
2023/01/31 00:43:04;;;;;;;;;;;;;;;4.86;74.51;99427.13;5055940;28;4817;-79
2023/01/31 00:45:31;;;;;;;;;;;;;;;4.85;74.46;99434.28;5056232;28;4295;-78
2023/01/31 00:47:58;;;;;;;;;;;;;;;4.86;74.31;99435.94;5053380;28;4323;-78
2023/01/31 00:50:24;;;;;;;;;;;;;;;4.85;74.30;99439.63;5057802;28;4288;-78
2023/01/31 00:52:51;;;;;;;;;;;;;;;4.86;74.32;99451.97;5051130;28;4235;-78
2023/01/31 00:55:19;;;;;;;;;;;;;;;4.88;74.32;99449.06;5050589;28;4216;-78
2023/01/31 00:57:46;;;;;;;;;;;;;;;4.86;74.37;99443.94;5057117;28;4850;-78
2023/01/31 01:00:12;;;;;;;;;;;;;;;4.86;74.30;99446.63;5052654;28;4665;-78
2023/01/31 01:02:38;;;;;;;;;;;;;;;4.89;74.05;99448.88;5055319;28;4582;-78
2023/01/31 01:05:05;;;;;;;;;;;;;;;4.92;74.17;99461.78;5056645;28;4646;-78
2023/01/31 01:07:33;;;;;;;;;;;;;;;4.88;74.16;99451.72;5052188;28;4519;-78
2023/01/31 01:09:59;;;;;;;;;;;;;;;4.87;74.41;99447.44;5058725;28;5193;-78
2023/01/31 01:12:25;;;;;;;;;;;;;;;4.87;74.46;99439.44;5054022;28;4863;-78
2023/01/31 01:14:52;;;;;;;;;;;;;;;4.88;74.31;99439.25;5052881;28;4617;-78
2023/01/31 01:17:18;;;;;;;;;;;;;;;4.86;74.40;99443.94;5053433;28;4370;-78
2023/01/31 01:19:45;;;;;;;;;;;;;;;4.87;74.29;99444.78;5052459;28;4335;-78
2023/01/31 01:22:14;;;;;;;;;;;;;;;4.88;74.06;99444.56;5053156;28;4509;-78
2023/01/31 01:24:41;;;;;;;;;;;;;;;4.87;74.31;99450.09;5052671;28;4269;-78
2023/01/31 01:27:08;;;;;;;;;;;;;;;4.84;74.40;99442.53;5050255;28;4599;-78
2023/01/31 01:29:35;;;;;;;;;;;;;;;4.85;74.39;99444.16;5053022;28;4223;-78
2023/01/31 01:32:01;;;;;;;;;;;;;;;4.86;74.31;99432.47;5053769;28;4545;-78
2023/01/31 01:34:28;;;;;;;;;;;;;;;4.88;74.27;99425.91;5051360;28;4134;-78
2023/01/31 01:36:54;;;;;;;;;;;;;;;4.90;74.24;99415.00;5054948;28;4574;-79
2023/01/31 01:39:21;;;;;;;;;;;;;;;4.86;74.30;99421.78;5050812;28;4749;-78
2023/01/31 01:41:47;;;;;;;;;;;;;;;4.87;74.09;99421.56;5052049;28;4889;-78
2023/01/31 01:44:14;;;;;;;;;;;;;;;4.89;74.13;99424.84;5055164;28;4306;-78
2023/01/31 01:46:40;;;;;;;;;;;;;;;4.86;74.25;99429.81;5052119;28;4237;-78
2023/01/31 01:49:07;;;;;;;;;;;;;;;4.89;74.08;99424.03;5047902;28;4377;-78
2023/01/31 01:51:33;;;;;;;;;;;;;;;4.88;74.23;99423.22;5067968;28;4464;-78
2023/01/31 01:53:59;;;;;;;;;;;;;;;4.86;74.21;99427.94;5052802;28;4136;-78
2023/01/31 01:56:27;;;;;;;;;;;;;;;4.88;74.25;99433.91;5053334;28;4110;-78
2023/01/31 01:58:54;;;;;;;;;;;;;;;4.84;74.42;99426.50;5050885;28;4154;-78
2023/01/31 02:01:20;;;;;;;;;;;;;;;4.82;74.32;99421.38;5065907;28;4370;-78
2023/01/31 02:03:47;;;;;;;;;;;;;;;4.85;74.41;99425.47;5051228;28;4247;-78
2023/01/31 02:06:13;;;;;;;;;;;;;;;4.81;74.30;99427.75;5051993;28;4702;-78
2023/01/31 02:08:40;;;;;;;;;;;;;;;4.82;74.44;99431.22;5054270;28;4842;-78
2023/01/31 02:11:06;;;;;;;;;;;;;;;4.83;74.14;99436.38;5051456;28;4515;-78
2023/01/31 02:13:33;;;;;;;;;;;;;;;4.80;74.45;99434.13;5052816;28;4905;-78
2023/01/31 02:16:00;;;;;;;;;;;;;;;4.81;74.29;99432.25;5051907;28;4199;-78
2023/01/31 02:18:26;;;;;;;;;;;;;;;4.81;74.35;99443.75;5050301;28;4458;-78
2023/01/31 02:20:53;;;;;;;;;;;;;;;4.76;74.54;99440.88;5053553;28;4166;-78
2023/01/31 02:23:19;;;;;;;;;;;;;;;4.75;74.52;99452.59;5054465;28;4169;-78
2023/01/31 02:25:48;;;;;;;;;;;;;;;4.77;74.55;99459.38;5050848;28;4313;-78
2023/01/31 02:28:14;;;;;;;;;;;;;;;4.75;74.53;99460.59;5055372;28;4226;-78
2023/01/31 02:30:40;;;;;;;;;;;;;;;4.78;74.38;99452.19;5055888;28;4185;-78
2023/01/31 02:33:07;;;;;;;;;;;;;;;4.77;74.49;99466.56;5051800;28;4066;-78
2023/01/31 02:35:33;;;;;;;;;;;;;;;4.83;74.30;99451.56;5052970;28;4704;-78
2023/01/31 02:38:00;;;;;;;;;;;;;;;4.77;74.43;99445.22;5052582;28;4762;-78
2023/01/31 02:40:26;;;;;;;;;;;;;;;4.78;74.40;99447.66;5051392;28;4762;-78
2023/01/31 02:42:53;;;;;;;;;;;;;;;4.86;74.00;99433.28;5054350;28;4582;-78
2023/01/31 02:45:18;;;;;;;;;;;;;;;4.75;74.53;99440.06;5050933;28;4696;-78
2023/01/31 02:47:45;;;;;;;;;;;;;;;4.77;74.34;99432.69;5050282;28;4351;-77
2023/01/31 02:50:11;;;;;;;;;;;;;;;4.78;74.17;99423.66;5054128;28;4550;-78
2023/01/31 02:52:38;;;;;;;;;;;;;;;4.75;74.26;99425.91;5050511;28;4713;-78
2023/01/31 02:57:49;;;;;;;;;;;;;;;4.76;74.19;99420.38;5052027;28;4636;-78
2023/01/31 03:00:15;;;;;;;;;;;;;;;4.73;74.70;99419.97;5051351;28;4094;-78
2023/01/31 03:02:42;;;;;;;;;;;;;;;4.76;74.27;99420.38;5050535;28;4130;-78
2023/01/31 03:05:08;;;;;;;;;;;;;;;4.67;74.51;99421.63;5058576;28;4609;-78
2023/01/31 03:07:36;;;;;;;;;;;;;;;4.78;74.29;99425.50;5050964;28;4706;-78
2023/01/31 03:10:03;;;;;;;;;;;;;;;4.72;74.35;99426.34;5053692;28;4709;-78
2023/01/31 03:12:30;;;;;;;;;;;;;;;4.73;74.35;99427.97;5051495;28;5338;-78
2023/01/31 03:14:58;;;;;;;;;;;;;;;4.71;74.29;99430.03;5052094;28;4727;-78
2023/01/31 03:17:34;;;;;;;;;;;;;;;4.69;74.38;99432.91;5051392;28;4392;-78
2023/01/31 03:20:00;;;;;;;;;;;;;;;4.76;74.26;99435.53;5051340;28;4354;-78
2023/01/31 03:22:26;;;;;;;;;;;;;;;4.73;74.25;99439.44;5052600;28;4770;-78
2023/01/31 03:24:53;;;;;;;;;;;;;;;4.73;74.17;99426.09;5048440;28;4482;-78
2023/01/31 03:27:20;;;;;;;;;;;;;;;4.73;74.38;99423.44;5047976;28;4789;-78
2023/01/31 03:29:48;;;;;;;;;;;;;;;4.78;74.09;99414.81;5051078;28;4066;-78
2023/01/31 03:32:15;;;;;;;;;;;;;;;4.73;74.12;99415.44;5052734;28;4211;-78
2023/01/31 03:34:41;;;;;;;;;;;;;;;4.72;74.36;99423.66;5047514;28;4269;-78
2023/01/31 03:37:09;;;;;;;;;;;;;;;4.77;74.19;99413.19;5050607;28;4819;-78
2023/01/31 03:39:37;;;;;;;;;;;;;;;4.75;74.40;99410.72;5052737;28;4797;-78
2023/01/31 03:42:06;;;;;;;;;;;;;;;4.73;74.22;99409.28;5050239;28;4759;-78
2023/01/31 03:44:32;;;;;;;;;;;;;;;4.76;73.99;99414.22;5052149;28;4850;-78
2023/01/31 03:46:59;;;;;;;;;;;;;;;4.74;74.20;99422.44;5052482;28;4356;-78
2023/01/31 03:49:26;;;;;;;;;;;;;;;4.75;74.11;99421.41;5051261;28;4360;-78
2023/01/31 03:51:52;;;;;;;;;;;;;;;4.73;74.22;99409.28;5051709;28;4281;-78
2023/01/31 03:54:19;;;;;;;;;;;;;;;4.74;74.21;99418.94;5050239;28;4806;-78
2023/01/31 03:56:46;;;;;;;;;;;;;;;4.73;74.15;99412.78;5059189;28;4814;-78
2023/01/31 03:59:13;;;;;;;;;;;;;;;4.80;73.76;99412.78;5052653;28;4706;-78
2023/01/31 04:01:39;;;;;;;;;;;;;;;4.81;73.85;99417.06;5051069;28;4708;-78
2023/01/31 04:04:06;;;;;;;;;;;;;;;4.77;74.07;99411.34;5054108;28;4717;-78
2023/01/31 04:06:33;;;;;;;;;;;;;;;4.80;74.02;99410.13;5051157;28;4797;-78
2023/01/31 04:09:00;;;;;;;;;;;;;;;4.81;73.75;99411.75;5053720;28;4859;-78
2023/01/31 04:11:26;;;;;;;;;;;;;;;4.83;73.77;99404.34;5053451;28;4641;-78
2023/01/31 04:13:57;;;;;;;;;;;;;;;4.81;73.78;99417.06;5046292;28;5006;-78
2023/01/31 04:16:25;;;;;;;;;;;;;;;4.81;74.00;99405.59;5048481;28;4373;-78
2023/01/31 04:18:55;;;;;;;;;;;;;;;4.83;73.72;99403.53;5050388;28;4420;-78
2023/01/31 04:21:22;;;;;;;;;;;;;;;4.83;73.89;99396.34;5051115;28;4713;-78
2023/01/31 04:23:49;;;;;;;;;;;;;;;4.81;73.81;99389.59;5050957;28;5052;-78
2023/01/31 04:26:16;;;;;;;;;;;;;;;4.83;73.71;99388.34;5049120;28;4324;-78
2023/01/31 04:28:43;;;;;;;;;;;;;;;4.80;73.65;99388.78;5050917;28;4351;-78
2023/01/31 04:31:09;;;;;;;;;;;;;;;4.81;73.80;99386.91;5050092;28;4347;-78
2023/01/31 04:33:36;;;;;;;;;;;;;;;4.78;73.93;99388.97;5051406;28;4579;-78
2023/01/31 04:36:03;;;;;;;;;;;;;;;4.83;73.83;99390.19;5055035;28;4675;-78
2023/01/31 04:38:29;;;;;;;;;;;;;;;4.81;73.82;99392.25;5053912;28;4695;-78
2023/01/31 04:40:57;;;;;;;;;;;;;;;4.80;73.86;99398.63;5048236;28;4761;-78
2023/01/31 04:43:24;;;;;;;;;;;;;;;4.78;73.91;99390.81;5057960;28;4718;-78
2023/01/31 04:45:50;;;;;;;;;;;;;;;4.83;73.65;99391.00;5049696;28;4307;-79
2023/01/31 04:48:17;;;;;;;;;;;;;;;4.82;73.68;99391.22;5055476;28;4714;-78
2023/01/31 04:50:44;;;;;;;;;;;;;;;4.91;73.54;99387.28;5056104;28;4772;-78
2023/01/31 04:53:11;;;;;;;;;;;;;;;4.86;73.59;99382.59;5058360;28;4541;-78
2023/01/31 04:55:38;;;;;;;;;;;;;;;4.86;73.66;99363.09;5062153;28;5008;-78
2023/01/31 04:58:04;;;;;;;;;;;;;;;4.87;73.56;99362.88;5056896;28;4764;-78
2023/01/31 05:00:32;;;;;;;;;;;;;;;4.87;73.57;99362.88;5059600;28;4243;-78
2023/01/31 05:02:59;;;;;;;;;;;;;;;4.91;73.23;99361.44;5054904;28;4282;-78
2023/01/31 05:05:26;;;;;;;;;;;;;;;4.94;73.23;99355.69;5052538;28;4209;-78
2023/01/31 05:07:53;;;;;;;;;;;;;;;4.88;73.32;99361.88;5058998;28;4889;-78
2023/01/31 05:10:19;;;;;;;;;;;;;;;4.91;73.42;99366.78;5053468;28;4710;-78
2023/01/31 05:12:46;;;;;;;;;;;;;;;4.92;73.19;99365.72;5054638;28;4769;-78
2023/01/31 05:15:13;;;;;;;;;;;;;;;4.95;73.19;99365.31;5050554;28;4532;-77
2023/01/31 05:17:40;;;;;;;;;;;;;;;5.05;72.93;99356.03;5038036;28;5420;-78
2023/01/31 05:20:07;;;;;;;;;;;;;;;5.17;72.54;99355.13;5039412;28;4211;-78
2023/01/31 05:22:34;;;;;;;;;;;;;;;5.02;72.86;99351.94;5037375;28;4052;-78
2023/01/31 05:25:01;;;;;;;;;;;;;;;4.90;73.27;99343.78;5036608;28;4689;-78
2023/01/31 05:27:27;;;;;;;;;;;;;;;4.98;73.06;99338.19;5043332;28;4527;-78
2023/01/31 05:29:54;;;;;;;;;;;;;;;4.95;73.28;99338.63;5038527;28;4172;-78
2023/01/31 05:32:20;;;;;;;;;;;;;;;4.98;73.06;99335.53;5053812;28;4304;-78
2023/01/31 05:34:47;;;;;;;;;;;;;;;5.05;72.96;99332.81;5041827;28;4741;-78
2023/01/31 05:37:13;;;;;;;;;;;;;;;5.06;72.91;99328.28;5029604;28;4220;-78
2023/01/31 05:39:40;;;;;;;;;;;;;;;5.12;72.67;99333.63;5039477;28;4796;-78
2023/01/31 05:42:06;;;;;;;;;;;;;;;5.12;72.60;99332.81;5042580;28;4737;-78
2023/01/31 05:44:33;;;;;;;;;;;;;;;5.11;72.49;99329.28;5041982;28;4406;-78
2023/01/31 05:47:00;;;;;;;;;;;;;;;5.04;72.79;99325.03;5036840;28;4634;-78
2023/01/31 05:49:30;;;;;;;;;;;;;;;5.13;72.60;99323.75;5041729;28;4587;-78
2023/01/31 05:51:57;;;;;;;;;;;;;;;5.09;72.55;99310.03;5045979;28;4693;-78
2023/01/31 05:54:23;;;;;;;;;;;;;;;5.07;72.98;99312.09;5048826;28;4705;-78
2023/01/31 05:56:50;;;;;;;;;;;;;;;5.10;72.80;99305.50;5052552;28;4806;-78
2023/01/31 05:59:17;;;;;;;;;;;;;;;5.28;72.09;99312.78;5054777;28;4567;-78
2023/01/31 06:01:43;;;;;;;;;;;;;;;5.20;72.40;99308.50;5048111;28;4280;-78
2023/01/31 06:04:11;;;;;;;;;;;;;;;5.22;72.13;99306.44;5045484;28;4189;-78
2023/01/31 06:06:38;;;;;;;;;;;;;;;5.35;71.70;99301.00;5044628;28;4109;-77
2023/01/31 06:09:04;;;;;;;;;;;;;;;5.19;72.39;99294.34;5047437;28;4463;-78
2023/01/31 06:11:30;;;;;;;;;;;;;;;5.07;72.64;99293.41;5041465;28;4451;-77
2023/01/31 06:13:57;;;;;;;;;;;;;;;5.22;72.35;99285.09;5037249;28;4931;-78
2023/01/31 06:16:25;;;;;;;;;;;;;;;5.26;71.97;99278.28;5049339;28;4225;-77
2023/01/31 06:18:51;;;;;;;;;;;;;;;5.24;72.16;99277.69;5053572;28;4413;-77
2023/01/31 06:21:18;;;;;;;;;;;;;;;5.34;71.66;99277.22;5053507;28;4256;-78
2023/01/31 06:23:46;;;;;;;;;;;;;;;5.33;71.88;99276.41;5042899;28;4856;-77
2023/01/31 06:26:14;;;;;;;;;;;;;;;5.37;71.77;99268.75;5042981;28;4119;-78
2023/01/31 06:28:41;;;;;;;;;;;;;;;5.37;71.79;99269.59;5050306;28;4387;-78
2023/01/31 06:31:07;;;;;;;;;;;;;;;5.39;71.55;99274.72;5044459;28;4138;-75
2023/01/31 06:33:35;;;;;;;;;;;;;;;5.36;71.64;99267.97;5042667;28;4383;-78
2023/01/31 06:36:02;;;;;;;;;;;;;;;3.29;62.04;99268.81;5044311;28;3989;-78
2023/01/31 06:38:28;;;;;;;;;;;;;;;4.66;67.08;99259.97;5055560;28;4475;-78
2023/01/31 06:40:54;;;;;;;;;;;;;;;4.95;66.23;99257.75;5054515;28;4562;-78
2023/01/31 06:43:21;;;;;;;;;;;;;;;4.94;67.21;99254.28;5056050;28;4113;-78
2023/01/31 06:45:48;;;;;;;;;;;;;;;4.96;67.81;99256.72;5051815;28;3879;-78
2023/01/31 06:48:14;;;;;;;;;;;;;;;5.28;66.95;99246.84;5056224;28;4499;-78
2023/01/31 06:50:41;;;;;;;;;;;;;;;4.86;67.21;99163.81;5053051;28;4456;-78
2023/01/31 06:53:08;;;;;;;;;;;;;;;5.37;67.65;99239.41;5055074;28;4408;-78
2023/01/31 06:55:35;;;;;;;;;;;;;;;5.45;67.62;99236.47;5055425;28;4475;-78
2023/01/31 06:58:03;;;;;;;;;;;;;;;5.41;68.03;99243.25;5053866;28;4514;-78
2023/01/31 07:00:29;;;;;;;;;;;;;;;5.45;68.18;99242.63;5053625;28;4544;-78
2023/01/31 07:02:56;;;;;;;;;;;;;;;5.42;68.42;99240.38;5058106;28;3908;-78
2023/01/31 07:05:23;;;;;;;;;;;;;;;5.37;69.21;99229.53;5054209;28;3772;-78
2023/01/31 07:07:49;;;;;;;;;;;;;;;5.51;68.67;99226.75;5052607;28;3875;-78
2023/01/31 07:10:16;;;;;;;;;;;;;;;5.47;69.00;99218.34;5052285;28;3899;-78
2023/01/31 07:12:43;;;;;;;;;;;;;;;5.41;69.15;99217.41;5054661;28;4563;-78
2023/01/31 07:15:10;;;;;;;;;;;;;;;5.44;69.10;99211.63;5054002;28;4484;-78
2023/01/31 07:17:36;;;;;;;;;;;;;;;5.46;69.25;99196.16;5051537;28;4460;-78
2023/01/31 07:20:04;;;;;;;;;;;;;;;5.57;69.07;99193.84;5052554;28;4614;-78
2023/01/31 07:22:30;;;;;;;;;;;;;;;5.40;69.55;99191.72;5054694;28;5027;-78
2023/01/31 07:24:57;;;;;;;;;;;;;;;5.49;69.39;99202.13;5054438;28;4416;-78
2023/01/31 07:27:23;;;;;;;;;;;;;;;5.54;69.39;99180.91;5055108;28;4707;-78
2023/01/31 07:29:49;;;;;;;;;;;;;;;5.49;69.57;99178.91;5058977;28;3922;-78
2023/01/31 07:32:16;;;;;;;;;;;;;;;5.44;69.79;99171.56;5054074;28;4520;-78
2023/01/31 07:34:42;;;;;;;;;;;;;;;5.45;69.75;99172.38;5055415;28;4419;-78
2023/01/31 07:37:10;;;;;;;;;;;;;;;5.60;69.10;99177.38;5057196;28;4544;-78
2023/01/31 07:39:36;;;;;;;;;;;;;;;5.58;69.54;99166.06;5053555;28;4408;-78
2023/01/31 07:42:03;;;;;;;;;;;;;;;5.60;69.31;99169.34;5053261;28;4512;-78
2023/01/31 07:44:31;;;;;;;;;;;;;;;5.61;69.40;99165.63;5057011;28;4154;-78
2023/01/31 07:46:57;;;;;;;;;;;;;;;5.56;69.54;99149.44;5052156;28;4131;-78
2023/01/31 07:49:24;;;;;;;;;;;;;;;5.61;69.48;99142.41;5058246;28;3869;-78
2023/01/31 07:51:52;;;;;;;;;;;;;;;5.53;69.77;99132.03;5051710;28;4512;-78
2023/01/31 07:54:19;;;;;;;;;;;;;;;5.59;69.54;99127.63;5051998;28;4722;-78
2023/01/31 07:56:46;;;;;;;;;;;;;;;5.60;69.73;99123.94;5055636;28;4586;-78
2023/01/31 07:59:13;;;;;;;;;;;;;;;5.58;69.78;99113.47;5054152;28;3811;-78
2023/01/31 08:04:30;;;;;;;;;;;;;;;5.60;69.40;99114.06;4998078;28;3932;-78
2023/01/31 08:06:58;;;;;;;;;;;;;;;5.63;69.76;99112.81;5053126;28;4416;-78
2023/01/31 08:09:26;;;;;;;;;;;;;;;5.52;70.16;99106.34;5052216;28;4467;-78
2023/01/31 08:11:52;;;;;;;;;;;;;;;5.61;69.88;99104.19;5053653;28;4074;-78
2023/01/31 08:14:24;;;;;;;;;;;;;;;5.65;69.87;99111.56;5054899;28;4534;-78
2023/01/31 08:16:50;;;;;;;;;;;;;;;5.69;69.76;99103.91;5053262;28;4484;-78
2023/01/31 08:19:17;;;;;;;;;;;;;;;5.65;69.85;99105.41;5056084;28;4523;-78
2023/01/31 08:21:43;;;;;;;;;;;;;;;5.71;69.55;99107.19;5057173;28;4845;-78
2023/01/31 08:24:10;;;;;;;;;;;;;;;5.72;69.49;99098.13;5057705;28;5009;-79
2023/01/31 08:26:37;;;;;;;;;;;;;;;5.64;69.82;99088.53;5057358;28;4630;-78
2023/01/31 08:29:04;;;;;;;;;;;;;;;5.64;70.02;99085.88;5054511;28;4281;-78
2023/01/31 08:31:30;;;;;;;;;;;;;;;5.76;69.63;99079.78;5053639;28;4412;-78
2023/01/31 08:33:57;;;;;;;;;;;;;;;5.87;69.08;99082.50;5057582;28;4904;-78
2023/01/31 08:36:23;;;;;;;;;;;;;;;5.73;69.50;99088.25;5057759;28;4861;-78
2023/01/31 08:38:49;;;;;;;;;;;;;;;5.75;69.44;99075.50;5056699;28;4586;-78
2023/01/31 08:41:17;;;;;;;;;;;;;;;5.75;69.51;99080.84;5055303;28;4699;-78
2023/01/31 08:43:43;;;;;;;;;;;;;;;5.72;69.77;99081.28;5057643;28;4427;-78
2023/01/31 08:46:10;;;;;;;;;;;;;;;5.66;70.03;99081.13;5054473;28;3810;-78
2023/01/31 08:48:36;;;;;;;;;;;;;;;5.65;69.88;99076.03;5058267;28;3944;-78
2023/01/31 08:51:03;;;;;;;;;;;;;;;5.65;69.87;99070.69;5055084;28;4404;-78
2023/01/31 08:53:29;;;;;;;;;;;;;;;5.78;69.85;99059.81;5055756;28;4480;-78
2023/01/31 08:55:56;;;;;;;;;;;;;;;5.86;69.28;99051.50;5056124;28;4480;-78
2023/01/31 08:58:23;;;;;;;;;;;;;;;5.76;69.98;99050.41;5056949;28;4727;-78
2023/01/31 09:00:50;;;;;;;;;;;;;;;5.76;69.71;99045.06;5053430;28;3912;-79
2023/01/31 09:03:16;;;;;;;;;;;;;;;5.74;69.83;99042.63;5055425;28;3867;-78
2023/01/31 09:05:43;;;;;;;;;;;;;;;5.74;69.78;99039.94;5061882;28;4516;-79
2023/01/31 09:08:10;;;;;;;;;;;;;;;5.82;69.51;99026.25;5057666;28;4525;-78
2023/01/31 09:10:36;;;;;;;;;;;;;;;5.86;69.40;99018.63;5055580;28;4574;-78
2023/01/31 09:13:03;;;;;;;;;;;;;;;5.75;69.67;99012.19;5057783;28;4919;-78
2023/01/31 09:15:29;;;;;;;;;;;;;;;5.76;69.70;99007.66;5059935;28;3883;-79
2023/01/31 09:17:57;;;;;;;;;;;;;;;5.80;69.83;99004.31;5058241;28;3855;-79
2023/01/31 09:20:24;;;;;;;;;;;;;;;5.84;69.38;98997.47;5053263;28;4464;-78
2023/01/31 09:22:50;;;;;;;;;;;;;;;5.83;69.36;98992.38;5061008;28;4566;-78
2023/01/31 09:25:17;;;;;;;;;;;;;;;5.85;69.54;98992.94;5054061;28;4508;-79
2023/01/31 09:27:43;;;;;;;;;;;;;;;5.80;69.65;98979.47;5055666;28;4503;-78
2023/01/31 09:30:09;;;;;;;;;;;;;;;5.80;69.56;98974.94;5054006;28;3963;-79
2023/01/31 09:32:37;;;;;;;;;;;;;;;5.91;69.21;98963.47;5055923;28;4416;-79
2023/01/31 09:35:04;;;;;;;;;;;;;;;5.85;69.32;98955.53;5056579;28;3834;-78
2023/01/31 09:37:31;;;;;;;;;;;;;;;5.72;69.97;98945.84;5059673;28;4932;-78
2023/01/31 09:39:57;;;;;;;;;;;;;;;5.82;69.69;98942.63;5054856;28;4605;-79
2023/01/31 09:42:23;;;;;;;;;;;;;;;5.69;70.17;98940.97;5056190;28;5020;-79
2023/01/31 09:44:52;;;;;;;;;;;;;;;5.70;70.25;98939.91;5054261;28;4242;-79
2023/01/31 09:47:19;;;;;;;;;;;;;;;5.83;69.69;98946.94;5055000;28;4479;-79
2023/01/31 09:49:46;;;;;;;;;;;;;;;5.87;69.58;98929.41;5056076;28;4500;-79
2023/01/31 09:52:12;;;;;;;;;;;;;;;5.83;69.75;98922.91;5061822;28;4778;-79
2023/01/31 09:54:39;;;;;;;;;;;;;;;5.82;69.67;98927.41;5056388;28;4471;-79
2023/01/31 09:57:07;;;;;;;;;;;;;;;5.74;69.88;98933.09;5056960;28;4555;-79
2023/01/31 09:59:35;;;;;;;;;;;;;;;5.83;69.86;98928.25;5054106;28;4090;-79
2023/01/31 10:02:04;;;;;;;;;;;;;;;5.76;70.15;98920.28;5054712;28;4809;-79
2023/01/31 10:04:33;;;;;;;;;;;;;;;5.79;69.81;98919.84;5056965;28;4452;-79
2023/01/31 10:07:00;;;;;;;;;;;;;;;5.83;69.89;98921.03;5054546;28;4705;-79
2023/01/31 10:09:27;;;;;;;;;;;;;;;5.86;69.74;98919.75;5055935;28;4625;-79
2023/01/31 10:11:53;;;;;;;;;;;;;;;5.87;69.74;98926.72;5053740;28;4458;-79
2023/01/31 10:14:20;;;;;;;;;;;;;;;5.77;69.96;98919.28;5055811;28;5015;-79
2023/01/31 10:16:46;;;;;;;;;;;;;;;5.78;70.28;98920.09;5053918;28;4459;-79
2023/01/31 10:19:13;;;;;;;;;;;;;;;5.84;69.76;98908.47;5055990;28;4790;-79
2023/01/31 10:21:39;;;;;;;;;;;;;;;5.84;69.94;98919.16;5055818;28;4551;-79
2023/01/31 10:24:06;;;;;;;;;;;;;;;5.76;70.07;98919.50;5052537;28;4472;-79
2023/01/31 10:26:32;;;;;;;;;;;;;;;5.79;70.21;98909.16;5056705;28;4424;-79
2023/01/31 10:28:59;;;;;;;;;;;;;;;5.76;70.20;98900.78;5053407;28;3811;-79
2023/01/31 10:31:25;;;;;;;;;;;;;;;5.73;70.50;98893.22;5055962;28;3866;-79
2023/01/31 10:33:53;;;;;;;;;;;;;;;5.69;70.58;98890.22;5053171;28;4596;-79
2023/01/31 10:36:19;;;;;;;;;;;;;;;5.69;70.43;98883.00;5069996;28;4911;-79
2023/01/31 10:38:46;;;;;;;;;;;;;;;5.71;70.65;98869.44;5053363;28;5238;-79
2023/01/31 10:41:13;;;;;;;;;;;;;;;5.75;70.34;98867.91;5055591;28;4623;-79
2023/01/31 10:43:39;;;;;;;;;;;;;;;5.65;70.86;98860.47;5058980;28;4608;-79
2023/01/31 10:46:06;;;;;;;;;;;;;;;5.79;70.14;98860.25;5050516;28;3912;-79
2023/01/31 10:48:34;;;;;;;;;;;;;;;5.65;70.55;98854.31;5057516;28;4428;-79
2023/01/31 10:51:00;;;;;;;;;;;;;;;5.64;70.73;98847.34;5054168;28;4754;-79
2023/01/31 10:53:28;;;;;;;;;;;;;;;5.65;70.90;98835.63;5056160;28;4503;-79
2023/01/31 10:55:55;;;;;;;;;;;;;;;5.82;70.14;98825.06;5052959;28;4540;-79
2023/01/31 10:58:22;;;;;;;;;;;;;;;5.82;69.96;98825.06;5053786;28;4472;-79
2023/01/31 11:00:50;;;;;;;;;;;;;;;5.71;70.59;98808.00;5051788;28;4021;-79
2023/01/31 11:03:16;;;;;;;;;;;;;;;5.88;70.09;98800.09;5053898;28;3911;-79
2023/01/31 11:05:42;;;;;;;;;;;;;;;5.78;70.32;98795.34;5055279;28;4587;-79
2023/01/31 11:08:09;;;;;;;;;;;;;;;5.72;70.67;98793.59;5054586;28;4489;-80
2023/01/31 11:10:39;;;;;;;;;;;;;;;5.65;70.75;98780.34;5054545;28;4404;-79
2023/01/31 11:13:06;;;;;;;;;;;;;;;5.68;70.96;98768.38;5053748;28;4557;-79
2023/01/31 11:15:33;;;;;;;;;;;;;;;5.68;70.66;98753.19;5051550;28;4098;-79
2023/01/31 11:17:59;;;;;;;;;;;;;;;5.67;70.96;98742.72;5051709;28;3886;-79
2023/01/31 11:20:26;;;;;;;;;;;;;;;5.64;71.03;98743.16;5059777;28;4524;-79
2023/01/31 11:22:53;;;;;;;;;;;;;;;5.78;70.57;98741.91;5057106;28;4531;-80
2023/01/31 11:25:19;;;;;;;;;;;;;;;5.72;70.53;98731.34;5054063;28;4484;-79
2023/01/31 11:27:46;;;;;;;;;;;;;;;5.64;71.00;98732.50;5054270;28;4457;-79
2023/01/31 11:30:12;;;;;;;;;;;;;;;5.61;71.30;98733.75;5057500;28;4669;-79
2023/01/31 11:32:39;;;;;;;;;;;;;;;5.67;70.90;98724.00;5053174;28;4457;-79
2023/01/31 11:35:05;;;;;;;;;;;;;;;5.63;71.16;98730.88;5055414;28;4495;-79
2023/01/31 11:37:31;;;;;;;;;;;;;;;5.61;71.03;98725.75;5051669;28;4436;-79
2023/01/31 11:39:59;;;;;;;;;;;;;;;5.58;71.37;98720.06;5052721;28;5171;-79
2023/01/31 11:42:26;;;;;;;;;;;;;;;5.77;70.71;98723.44;5054423;28;4583;-79
2023/01/31 11:44:53;;;;;;;;;;;;;;;5.72;70.74;98710.78;5049234;28;3899;-79
2023/01/31 11:47:19;;;;;;;;;;;;;;;5.63;71.11;98702.31;5056209;28;3925;-79
2023/01/31 11:49:46;;;;;;;;;;;;;;;5.66;71.16;98698.34;5050621;28;3812;-79
2023/01/31 11:52:12;;;;;;;;;;;;;;;5.64;71.00;98690.56;5052659;28;4568;-79
2023/01/31 11:54:39;;;;;;;;;;;;;;;5.74;70.74;98691.88;5058664;28;4696;-80
2023/01/31 11:57:06;;;;;;;;;;;;;;;5.74;70.86;98689.19;5057453;28;4491;-79
2023/01/31 11:59:32;;;;;;;;;;;;;;;5.73;71.09;98687.53;5057393;28;3904;-79
2023/01/31 12:01:59;;;;;;;;;;;;;;;5.82;70.32;98684.28;5055004;28;4316;-79
2023/01/31 12:04:26;;;;;;;;;;;;;;;5.72;70.70;98684.06;5061567;28;3859;-79
2023/01/31 12:06:53;;;;;;;;;;;;;;;5.69;71.22;98681.88;5063481;28;3852;-79
2023/01/31 12:09:20;;;;;;;;;;;;;;;5.81;70.69;98680.00;5057397;28;4539;-79
2023/01/31 12:11:46;;;;;;;;;;;;;;;5.81;70.83;98663.16;5058374;28;4901;-79
2023/01/31 12:14:13;;;;;;;;;;;;;;;5.78;70.76;98647.59;5062043;28;3972;-79
2023/01/31 12:16:41;;;;;;;;;;;;;;;5.77;71.03;98636.09;5057030;28;4536;-79
2023/01/31 12:19:08;;;;;;;;;;;;;;;5.81;71.03;98621.22;5055005;28;4519;-79
2023/01/31 12:21:36;;;;;;;;;;;;;;;5.83;70.90;98612.97;5057059;28;6025;-79
2023/01/31 12:24:03;;;;;;;;;;;;;;;5.72;71.05;98611.94;5056742;28;4472;-79
2023/01/31 12:26:31;;;;;;;;;;;;;;;5.78;70.91;98615.53;5059572;28;4489;-79
2023/01/31 12:28:59;;;;;;;;;;;;;;;5.78;70.96;98616.34;5057036;28;4451;-79
2023/01/31 12:31:26;;;;;;;;;;;;;;;5.80;71.16;98602.75;5057849;28;3928;-79
2023/01/31 12:33:52;;;;;;;;;;;;;;;5.78;71.05;98592.31;5057192;28;4576;-79
2023/01/31 12:36:19;;;;;;;;;;;;;;;5.70;71.69;98585.44;5055305;28;4582;-79
2023/01/31 12:38:46;;;;;;;;;;;;;;;5.92;70.57;98569.63;5058864;28;4550;-79
2023/01/31 12:41:13;;;;;;;;;;;;;;;5.84;70.95;98555.81;5057590;28;3874;-79
2023/01/31 12:43:40;;;;;;;;;;;;;;;5.82;71.06;98547.22;5055086;28;4602;-79
2023/01/31 12:46:08;;;;;;;;;;;;;;;5.71;71.26;98535.53;5054677;28;4460;-79
2023/01/31 12:48:36;;;;;;;;;;;;;;;5.78;71.08;98528.19;5058301;28;4838;-79
2023/01/31 12:51:02;;;;;;;;;;;;;;;5.82;71.00;98523.97;5055871;28;5013;-79
2023/01/31 12:53:29;;;;;;;;;;;;;;;5.92;70.83;98520.72;5058839;28;4757;-79
2023/01/31 12:55:56;;;;;;;;;;;;;;;5.81;71.16;98511.69;5057005;28;4528;-79
2023/01/31 12:58:23;;;;;;;;;;;;;;;5.75;71.17;98506.50;5056888;28;4516;-79
2023/01/31 13:00:49;;;;;;;;;;;;;;;5.80;71.12;98495.91;5055199;28;3911;-79
2023/01/31 13:03:16;;;;;;;;;;;;;;;5.78;71.20;98501.47;5053682;28;4373;-79
2023/01/31 13:05:43;;;;;;;;;;;;;;;5.81;71.26;98495.66;5056507;28;4445;-79
2023/01/31 13:08:16;;;;;;;;;;;;;;;5.89;70.78;98495.28;5056801;28;4464;-79
2023/01/31 13:10:43;;;;;;;;;;;;;;;5.83;71.14;98492.75;5059146;28;4942;-79